Time,TemperatureF,DewpointF,PressureIn,WindDirection,WindDirectionDegrees,WindSpeedMPH,WindSpeedGustMPH,Humidity,HourlyPrecipIn,Conditions,Clouds,dailyrainin,SoftwareType,DateUTC
2013-02-27 00:03:00,29.3,29.1,30.71,North,-999,0.0,0.0,99,0.00,,,0.00,pywws,2013-02-27 00:03:00,
2013-02-27 00:08:00,29.5,29.2,30.71,North,-999,0.0,0.0,99,0.00,,,0.00,pywws,2013-02-27 00:08:00,
2013-02-27 00:13:00,29.5,29.2,30.71,North,-999,0.0,0.0,99,0.00,,,0.00,pywws,2013-02-27 00:13:00,
2013-02-27 00:18:00,29.5,29.2,30.71,North,-999,0.0,0.0,99,0.00,,,0.00,pywws,2013-02-27 00:18:00,
2013-02-27 00:23:00,29.3,29.1,30.71,North,-999,0.0,0.0,99,0.00,,,0.00,pywws,2013-02-27 00:23:00,
2013-02-27 00:28:00,29.3,29.1,30.72,North,-999,0.0,0.0,99,0.00,,,0.00,pywws,2013-02-27 00:28:00,
2013-02-27 00:33:00,29.3,29.1,30.71,North,-999,0.0,0.0,99,0.00,,,0.00,pywws,2013-02-27 00:33:00,
2013-02-27 00:38:00,29.3,29.1,30.72,North,-999,0.0,0.0,99,0.00,,,0.00,pywws,2013-02-27 00:38:00,
2013-02-27 00:43:00,29.7,29.4,30.72,North,-999,0.0,0.0,99,0.00,,,0.00,pywws,2013-02-27 00:43:00,
2013-02-27 00:48:00,30.0,29.8,30.72,North,-999,0.0,0.0,99,0.00,,,0.00,pywws,2013-02-27 00:48:00,
2013-02-27 00:53:00,30.4,30.1,30.72,North,-999,0.0,0.0,99,0.00,,,0.00,pywws,2013-02-27 00:53:00,
2013-02-27 01:03:00,30.7,30.5,30.72,North,-999,0.0,0.0,99,0.00,,,0.00,pywws,2013-02-27 01:03:00,
2013-02-27 01:08:00,31.1,30.9,30.71,North,-999,0.0,0.0,99,0.00,,,0.00,pywws,2013-02-27 01:08:00,
2013-02-27 01:13:00,31.3,31.0,30.71,North,-999,0.0,0.0,99,0.00,,,0.00,pywws,2013-02-27 01:13:00,
2013-02-27 01:18:00,31.5,31.2,30.71,North,-999,0.0,0.0,99,0.00,,,0.00,pywws,2013-02-27 01:18:00,
2013-02-27 01:23:00,31.5,31.2,30.71,North,-999,0.0,0.0,99,0.00,,,0.00,pywws,2013-02-27 01:23:00,
2013-02-27 01:28:00,31.5,31.2,30.71,North,-999,0.0,0.0,99,0.00,,,0.00,pywws,2013-02-27 01:28:00,
2013-02-27 01:33:00,31.5,31.2,30.71,North,-999,0.0,0.0,99,0.00,,,0.00,pywws,2013-02-27 01:33:00,
2013-02-27 01:38:00,31.6,31.4,30.71,North,-999,0.0,0.0,99,0.00,,,0.00,pywws,2013-02-27 01:38:00,
2013-02-27 01:43:00,31.6,31.4,30.71,North,-999,0.0,0.0,99,0.00,,,0.00,pywws,2013-02-27 01:43:00,
2013-02-27 01:48:00,31.6,31.4,30.71,North,-999,0.0,0.0,99,0.00,,,0.00,pywws,2013-02-27 01:48:00,
2013-02-27 01:53:00,31.8,31.6,30.71,North,-999,0.0,0.0,99,0.00,,,0.00,pywws,2013-02-27 01:53:00,
2013-02-27 02:03:00,32.0,31.8,30.71,North,-999,0.0,0.0,99,0.00,,,0.00,pywws,2013-02-27 02:03:00,
2013-02-27 02:08:00,32.0,31.8,30.71,North,-999,0.0,0.0,99,0.00,,,0.00,pywws,2013-02-27 02:08:00,
2013-02-27 02:13:00,32.2,31.9,30.71,North,-999,0.0,0.0,99,0.00,,,0.00,pywws,2013-02-27 02:13:00,
2013-02-27 02:18:00,32.2,31.9,30.71,North,-999,0.0,0.0,99,0.00,,,0.00,pywws,2013-02-27 02:18:00,
2013-02-27 02:23:00,32.2,31.9,30.70,North,-999,0.0,0.0,99,0.00,,,0.00,pywws,2013-02-27 02:23:00,
2013-02-27 02:28:00,32.2,31.9,30.71,North,-999,0.0,0.0,99,0.00,,,0.00,pywws,2013-02-27 02:28:00,
2013-02-27 02:33:00,32.4,32.1,30.70,North,-999,0.0,0.0,99,0.00,,,0.00,pywws,2013-02-27 02:33:00,
2013-02-27 02:38:00,32.4,32.1,30.70,North,-999,0.0,0.0,99,0.00,,,0.00,pywws,2013-02-27 02:38:00,
2013-02-27 02:43:00,32.4,32.1,30.70,North,-999,0.0,0.0,99,0.00,,,0.00,pywws,2013-02-27 02:43:00,
2013-02-27 02:48:00,32.4,32.1,30.70,North,-999,0.0,0.0,99,0.00,,,0.00,pywws,2013-02-27 02:48:00,
2013-02-27 02:53:00,32.5,32.3,30.70,North,-999,0.0,0.0,99,0.00,,,0.00,pywws,2013-02-27 02:53:00,
2013-02-27 03:03:00,32.5,32.3,30.70,North,-999,0.0,0.0,99,0.00,,,0.00,pywws,2013-02-27 03:03:00,
2013-02-27 03:08:00,32.7,32.5,30.70,North,-999,0.0,0.0,99,0.00,,,0.00,pywws,2013-02-27 03:08:00,
2013-02-27 03:13:00,32.7,32.5,30.70,North,-999,0.0,0.0,99,0.00,,,0.00,pywws,2013-02-27 03:13:00,
2013-02-27 03:18:00,32.7,32.5,30.70,North,-999,0.0,0.0,99,0.00,,,0.00,pywws,2013-02-27 03:18:00,
2013-02-27 03:23:00,32.7,32.5,30.70,North,-999,0.0,0.0,99,0.00,,,0.00,pywws,2013-02-27 03:23:00,
2013-02-27 03:28:00,32.7,32.5,30.70,North,-999,0.0,0.0,99,0.00,,,0.00,pywws,2013-02-27 03:28:00,
2013-02-27 03:33:00,32.7,32.5,30.70,North,-999,0.0,0.0,99,0.00,,,0.00,pywws,2013-02-27 03:33:00,
2013-02-27 03:38:00,32.7,32.5,30.70,North,-999,0.0,0.0,99,0.00,,,0.00,pywws,2013-02-27 03:38:00,
2013-02-27 03:43:00,32.7,32.5,30.70,North,-999,0.0,0.7,99,0.00,,,0.00,pywws,2013-02-27 03:43:00,
2013-02-27 03:48:00,32.9,32.7,30.70,North,-999,0.0,0.7,99,0.00,,,0.00,pywws,2013-02-27 03:48:00,
2013-02-27 03:53:00,32.9,32.7,30.70,North,-999,0.0,0.7,99,0.00,,,0.00,pywws,2013-02-27 03:53:00,
2013-02-27 04:03:00,32.9,32.7,30.70,North,-999,0.0,0.0,99,0.00,,,0.00,pywws,2013-02-27 04:03:00,
2013-02-27 04:08:00,32.7,32.5,30.69,North,-999,0.0,0.0,99,0.00,,,0.00,pywws,2013-02-27 04:08:00,
2013-02-27 04:13:00,32.7,32.5,30.69,North,-999,0.0,0.0,99,0.00,,,0.00,pywws,2013-02-27 04:13:00,
2013-02-27 04:18:00,32.7,32.5,30.70,North,-999,0.0,2.2,99,0.00,,,0.00,pywws,2013-02-27 04:18:00,
2013-02-27 04:23:00,32.7,32.5,30.69,North,-999,0.0,1.6,99,0.00,,,0.00,pywws,2013-02-27 04:23:00,
2013-02-27 04:28:00,32.7,32.5,30.69,North,-999,0.0,0.0,99,0.00,,,0.00,pywws,2013-02-27 04:28:00,
2013-02-27 04:33:00,32.5,32.3,30.69,North,-999,0.0,0.0,99,0.00,,,0.00,pywws,2013-02-27 04:33:00,
2013-02-27 04:38:00,32.5,32.3,30.69,North,-999,0.0,0.0,99,0.00,,,0.00,pywws,2013-02-27 04:38:00,
2013-02-27 04:43:00,32.5,32.3,30.69,North,-999,0.0,0.7,99,0.00,,,0.00,pywws,2013-02-27 04:43:00,
2013-02-27 04:48:00,32.4,32.1,30.69,North,-999,0.0,0.7,99,0.00,,,0.00,pywws,2013-02-27 04:48:00,
2013-02-27 04:53:00,32.4,32.1,30.69,North,-999,0.0,0.0,99,0.00,,,0.00,pywws,2013-02-27 04:53:00,
2013-02-27 05:03:00,32.4,32.1,30.70,North,-999,0.0,1.6,99,0.00,,,0.00,pywws,2013-02-27 05:03:00,
2013-02-27 05:08:00,32.0,31.8,30.70,North,-999,0.0,0.7,99,0.00,,,0.00,pywws,2013-02-27 05:08:00,
2013-02-27 05:13:00,31.6,31.4,30.69,NW,315,0.7,1.6,99,0.00,,,0.00,pywws,2013-02-27 05:13:00,
2013-02-27 05:18:00,31.5,31.2,30.69,North,-999,0.0,0.0,99,0.00,,,0.00,pywws,2013-02-27 05:18:00,
2013-02-27 05:23:00,31.3,31.0,30.69,North,-999,0.0,0.0,99,0.00,,,0.00,pywws,2013-02-27 05:23:00,
2013-02-27 05:28:00,30.9,30.7,30.69,North,-999,0.0,0.0,99,0.00,,,0.00,pywws,2013-02-27 05:28:00,
2013-02-27 05:33:00,30.7,30.5,30.70,North,-999,0.0,0.0,99,0.00,,,0.00,pywws,2013-02-27 05:33:00,
2013-02-27 05:38:00,30.4,30.1,30.70,North,-999,0.0,0.0,99,0.00,,,0.00,pywws,2013-02-27 05:38:00,
2013-02-27 05:43:00,30.0,29.8,30.69,North,-999,0.0,0.0,99,0.00,,,0.00,pywws,2013-02-27 05:43:00,
2013-02-27 05:48:00,29.5,29.2,30.69,North,-999,0.0,0.0,99,0.00,,,0.00,pywws,2013-02-27 05:48:00,
2013-02-27 05:53:00,28.9,28.7,30.69,North,-999,0.0,0.0,99,0.00,,,0.00,pywws,2013-02-27 05:53:00,
2013-02-27 06:03:00,28.8,28.5,30.69,North,-999,0.0,0.0,99,0.00,,,0.00,pywws,2013-02-27 06:03:00,
2013-02-27 06:08:00,28.2,28.0,30.68,North,-999,0.0,0.0,99,0.00,,,0.00,pywws,2013-02-27 06:08:00,
2013-02-27 06:13:00,27.7,27.4,30.68,North,-999,0.0,0.0,99,0.00,,,0.00,pywws,2013-02-27 06:13:00,
2013-02-27 06:18:00,27.5,27.3,30.68,North,-999,0.0,0.0,99,0.00,,,0.00,pywws,2013-02-27 06:18:00,
2013-02-27 06:23:00,27.3,27.1,30.68,North,-999,0.0,0.0,99,0.00,,,0.00,pywws,2013-02-27 06:23:00,
2013-02-27 06:28:00,27.3,27.1,30.68,North,-999,0.0,0.0,99,0.00,,,0.00,pywws,2013-02-27 06:28:00,
2013-02-27 06:33:00,27.0,26.7,30.68,North,-999,0.0,0.0,99,0.00,,,0.00,pywws,2013-02-27 06:33:00,
2013-02-27 06:38:00,27.1,26.9,30.68,North,-999,0.0,0.0,99,0.00,,,0.00,pywws,2013-02-27 06:38:00,
2013-02-27 06:43:00,27.3,27.1,30.69,North,-999,0.0,0.0,99,0.00,,,0.00,pywws,2013-02-27 06:43:00,
2013-02-27 06:48:00,27.7,27.4,30.68,North,-999,0.0,0.0,99,0.00,,,0.00,pywws,2013-02-27 06:48:00,
2013-02-27 06:53:00,28.0,27.8,30.68,North,-999,0.0,0.0,99,0.00,,,0.00,pywws,2013-02-27 06:53:00,
2013-02-27 07:03:00,28.2,28.0,30.68,North,-999,0.0,0.0,99,0.00,,,0.00,pywws,2013-02-27 07:03:00,
2013-02-27 07:08:00,28.4,28.2,30.69,North,-999,0.0,0.0,99,0.00,,,0.00,pywws,2013-02-27 07:08:00,
2013-02-27 07:13:00,28.4,28.2,30.68,North,-999,0.0,0.0,99,0.00,,,0.00,pywws,2013-02-27 07:13:00,
2013-02-27 07:18:00,28.6,28.3,30.69,North,-999,0.0,0.0,99,0.00,,,0.00,pywws,2013-02-27 07:18:00,
2013-02-27 07:23:00,28.6,28.3,30.69,North,-999,0.0,0.0,99,0.00,,,0.00,pywws,2013-02-27 07:23:00,
2013-02-27 07:28:00,28.8,28.5,30.69,North,-999,0.0,0.0,99,0.00,,,0.00,pywws,2013-02-27 07:28:00,
2013-02-27 07:33:00,28.9,28.7,30.69,North,-999,0.0,0.0,99,0.00,,,0.00,pywws,2013-02-27 07:33:00,
2013-02-27 07:38:00,29.1,28.9,30.69,North,-999,0.0,0.0,99,0.00,,,0.00,pywws,2013-02-27 07:38:00,
2013-02-27 07:43:00,29.1,28.9,30.69,North,-999,0.0,0.0,99,0.00,,,0.00,pywws,2013-02-27 07:43:00,
2013-02-27 07:48:00,28.9,28.7,30.70,North,-999,0.0,0.0,99,0.00,,,0.00,pywws,2013-02-27 07:48:00,
2013-02-27 07:53:00,28.9,28.7,30.70,North,-999,0.0,0.0,99,0.00,,,0.00,pywws,2013-02-27 07:53:00,
2013-02-27 08:03:00,29.1,28.9,30.70,North,-999,0.0,0.0,99,0.00,,,0.00,pywws,2013-02-27 08:03:00,
2013-02-27 08:08:00,29.1,28.9,30.70,North,-999,0.0,0.0,99,0.00,,,0.00,pywws,2013-02-27 08:08:00,
2013-02-27 08:13:00,29.5,29.2,30.69,North,-999,0.0,0.0,99,0.00,,,0.00,pywws,2013-02-27 08:13:00,
2013-02-27 08:18:00,29.7,29.4,30.69,North,-999,0.0,0.0,99,0.00,,,0.00,pywws,2013-02-27 08:18:00,
2013-02-27 08:23:00,30.0,29.8,30.69,North,-999,0.0,0.0,99,0.00,,,0.00,pywws,2013-02-27 08:23:00,
2013-02-27 08:28:00,30.4,30.1,30.70,North,-999,0.0,0.0,99,0.00,,,0.00,pywws,2013-02-27 08:28:00,
2013-02-27 08:33:00,30.4,30.1,30.69,North,-999,0.0,0.0,99,0.00,,,0.00,pywws,2013-02-27 08:33:00,
2013-02-27 08:38:00,30.6,30.3,30.69,North,-999,0.0,0.0,99,0.00,,,0.00,pywws,2013-02-27 08:38:00,
2013-02-27 08:43:00,30.6,30.3,30.70,North,-999,0.0,0.0,99,0.00,,,0.00,pywws,2013-02-27 08:43:00,
2013-02-27 08:48:00,30.9,30.7,30.69,North,-999,0.0,0.0,99,0.00,,,0.00,pywws,2013-02-27 08:48:00,
2013-02-27 08:53:00,31.1,30.9,30.69,North,-999,0.0,0.0,99,0.00,,,0.00,pywws,2013-02-27 08:53:00,
2013-02-27 09:03:00,31.5,31.2,30.69,North,-999,0.0,0.0,99,0.00,,,0.00,pywws,2013-02-27 09:03:00,
2013-02-27 09:08:00,33.4,33.2,30.69,North,-999,0.0,1.6,99,0.00,,,0.00,pywws,2013-02-27 09:08:00,
2013-02-27 09:13:00,34.9,34.6,30.69,North,-999,0.0,1.6,99,0.00,,,0.00,pywws,2013-02-27 09:13:00,
2013-02-27 09:18:00,36.3,36.1,30.69,North,-999,0.0,0.7,99,0.00,,,0.00,pywws,2013-02-27 09:18:00,
2013-02-27 09:23:00,37.4,37.1,30.69,North,-999,0.0,0.7,99,0.00,,,0.00,pywws,2013-02-27 09:23:00,
2013-02-27 09:28:00,38.5,38.2,30.69,North,-999,0.0,0.7,99,0.00,,,0.00,pywws,2013-02-27 09:28:00,
2013-02-27 09:33:00,40.1,39.8,30.69,North,-999,0.0,0.7,99,0.00,,,0.00,pywws,2013-02-27 09:33:00,
2013-02-27 09:38:00,40.3,40.0,30.69,North,-999,0.0,0.7,99,0.00,,,0.00,pywws,2013-02-27 09:38:00,
2013-02-27 09:43:00,41.0,40.7,30.69,North,-999,0.0,1.6,99,0.00,,,0.00,pywws,2013-02-27 09:43:00,
2013-02-27 09:48:00,41.9,41.6,30.69,North,-999,0.0,0.0,99,0.00,,,0.00,pywws,2013-02-27 09:48:00,
2013-02-27 09:53:00,43.3,43.1,30.69,North,-999,0.0,0.0,99,0.00,,,0.00,pywws,2013-02-27 09:53:00,
2013-02-27 10:03:00,44.4,44.2,30.69,North,-999,0.0,0.7,99,0.00,,,0.00,pywws,2013-02-27 10:03:00,
2013-02-27 10:08:00,46.2,46.0,30.68,North,-999,0.0,0.7,99,0.00,,,0.00,pywws,2013-02-27 10:08:00,
2013-02-27 10:13:00,47.3,47.0,30.68,North,-999,0.0,1.6,99,0.00,,,0.00,pywws,2013-02-27 10:13:00,
2013-02-27 10:18:00,48.0,47.8,30.68,North,-999,0.0,0.7,99,0.00,,,0.00,pywws,2013-02-27 10:18:00,
2013-02-27 10:23:00,49.3,48.7,30.68,North,-999,0.0,0.7,98,0.00,,,0.00,pywws,2013-02-27 10:23:00,
2013-02-27 10:28:00,50.0,48.6,30.68,North,-999,0.0,2.2,95,0.00,,,0.00,pywws,2013-02-27 10:28:00,
2013-02-27 10:33:00,48.6,44.3,30.68,NNE,22,0.7,1.6,85,0.00,,,0.00,pywws,2013-02-27 10:33:00,
2013-02-27 10:38:00,48.6,45.2,30.68,North,-999,0.0,0.7,88,0.00,,,0.00,pywws,2013-02-27 10:38:00,
2013-02-27 10:43:00,50.4,47.2,30.68,North,-999,0.0,0.7,89,0.00,,,0.00,pywws,2013-02-27 10:43:00,
2013-02-27 10:48:00,51.4,44.8,30.68,SE,135,0.7,1.6,78,0.00,,,0.00,pywws,2013-02-27 10:48:00,
2013-02-27 10:53:00,50.2,42.2,30.68,North,-999,0.0,1.6,74,0.00,,,0.00,pywws,2013-02-27 10:53:00,
2013-02-27 11:03:00,50.4,42.7,30.68,North,-999,0.0,1.6,75,0.00,,,0.00,pywws,2013-02-27 11:03:00,
2013-02-27 11:08:00,51.3,42.2,30.68,North,-999,0.0,1.6,71,0.00,,,0.00,pywws,2013-02-27 11:08:00,
2013-02-27 11:13:00,51.3,41.1,30.67,South,180,0.7,3.1,68,0.00,,,0.00,pywws,2013-02-27 11:13:00,
2013-02-27 11:18:00,51.8,42.7,30.68,North,-999,0.0,1.6,71,0.00,,,0.00,pywws,2013-02-27 11:18:00,
2013-02-27 11:23:00,51.4,41.6,30.68,North,-999,0.0,2.2,69,0.00,,,0.00,pywws,2013-02-27 11:23:00,
2013-02-27 11:28:00,51.6,42.5,30.68,North,-999,0.0,0.7,71,0.00,,,0.00,pywws,2013-02-27 11:28:00,
2013-02-27 11:33:00,52.5,41.5,30.67,SW,225,0.7,2.2,66,0.00,,,0.00,pywws,2013-02-27 11:33:00,
2013-02-27 11:38:00,52.5,41.1,30.68,North,-999,0.0,1.6,65,0.00,,,0.00,pywws,2013-02-27 11:38:00,
2013-02-27 11:43:00,52.3,40.5,30.67,South,180,0.7,1.6,64,0.00,,,0.00,pywws,2013-02-27 11:43:00,
2013-02-27 11:48:00,53.1,41.2,30.67,SW,225,0.7,1.6,64,0.00,,,0.00,pywws,2013-02-27 11:48:00,
2013-02-27 11:53:00,53.8,42.3,30.67,North,-999,0.0,1.6,65,0.00,,,0.00,pywws,2013-02-27 11:53:00,
2013-02-27 12:03:00,54.0,41.2,30.67,North,-999,0.0,1.6,62,0.00,,,0.00,pywws,2013-02-27 12:03:00,
2013-02-27 12:08:00,55.0,42.3,30.67,South,180,1.6,3.1,62,0.00,,,0.00,pywws,2013-02-27 12:08:00,
2013-02-27 12:13:00,53.8,41.1,30.66,SE,135,0.7,2.2,62,0.00,,,0.00,pywws,2013-02-27 12:13:00,
2013-02-27 12:18:00,53.1,42.0,30.66,North,-999,0.0,1.6,66,0.00,,,0.00,pywws,2013-02-27 12:18:00,
2013-02-27 12:23:00,52.0,41.4,30.66,NE,45,0.7,2.2,67,0.00,,,0.00,pywws,2013-02-27 12:23:00,
2013-02-27 12:28:00,51.1,40.9,30.66,North,-999,0.0,1.6,68,0.00,,,0.00,pywws,2013-02-27 12:28:00,
2013-02-27 12:33:00,50.9,41.5,30.66,South,180,0.7,1.6,70,0.00,,,0.00,pywws,2013-02-27 12:33:00,
2013-02-27 12:38:00,51.4,42.4,30.66,North,-999,0.0,1.6,71,0.00,,,0.00,pywws,2013-02-27 12:38:00,
2013-02-27 12:43:00,51.6,42.2,30.66,East,90,0.7,1.6,70,0.00,,,0.00,pywws,2013-02-27 12:43:00,
2013-02-27 12:48:00,51.3,41.1,30.65,North,-999,0.0,2.2,68,0.00,,,0.00,pywws,2013-02-27 12:48:00,
2013-02-27 12:53:00,50.9,40.7,30.65,North,-999,0.0,2.2,68,0.00,,,0.00,pywws,2013-02-27 12:53:00,
2013-02-27 13:03:00,51.4,42.0,30.65,North,-999,0.0,2.2,70,0.00,,,0.00,pywws,2013-02-27 13:03:00,
2013-02-27 13:08:00,51.3,41.4,30.64,North,-999,0.0,1.6,69,0.00,,,0.00,pywws,2013-02-27 13:08:00,
2013-02-27 13:13:00,52.5,42.3,30.64,SW,225,0.7,2.2,68,0.00,,,0.00,pywws,2013-02-27 13:13:00,
2013-02-27 13:18:00,52.9,41.8,30.65,North,-999,0.0,2.2,66,0.00,,,0.00,pywws,2013-02-27 13:18:00,
2013-02-27 13:23:00,52.7,41.7,30.64,North,-999,0.0,2.2,66,0.00,,,0.00,pywws,2013-02-27 13:23:00,
2013-02-27 13:28:00,53.2,42.2,30.64,North,-999,0.0,1.6,66,0.00,,,0.00,pywws,2013-02-27 13:28:00,
2013-02-27 13:33:00,54.0,41.2,30.63,South,180,0.7,2.2,62,0.00,,,0.00,pywws,2013-02-27 13:33:00,
2013-02-27 13:38:00,53.8,41.9,30.64,North,-999,0.0,1.6,64,0.00,,,0.00,pywws,2013-02-27 13:38:00,
2013-02-27 13:43:00,54.3,42.4,30.63,North,-999,0.0,2.2,64,0.00,,,0.00,pywws,2013-02-27 13:43:00,
2013-02-27 13:48:00,54.5,41.3,30.63,South,180,0.7,2.2,61,0.00,,,0.00,pywws,2013-02-27 13:48:00,
2013-02-27 13:53:00,55.0,41.8,30.64,SE,135,0.7,2.2,61,0.00,,,0.00,pywws,2013-02-27 13:53:00,
2013-02-27 14:03:00,54.0,40.8,30.63,North,-999,0.0,2.2,61,0.00,,,0.00,pywws,2013-02-27 14:03:00,
2013-02-27 14:08:00,54.0,40.8,30.63,East,90,1.6,3.1,61,0.00,,,0.00,pywws,2013-02-27 14:08:00,
2013-02-27 14:13:00,53.1,40.8,30.63,East,90,0.7,1.6,63,0.00,,,0.00,pywws,2013-02-27 14:13:00,
2013-02-27 14:18:00,52.5,40.3,30.63,North,-999,0.0,1.6,63,0.00,,,0.00,pywws,2013-02-27 14:18:00,
2013-02-27 14:23:00,52.2,40.4,30.63,East,90,0.7,3.1,64,0.00,,,0.00,pywws,2013-02-27 14:23:00,
2013-02-27 14:28:00,51.8,40.0,30.62,East,90,1.6,3.1,64,0.00,,,0.00,pywws,2013-02-27 14:28:00,
2013-02-27 14:33:00,51.3,39.9,30.63,East,90,1.6,3.1,65,0.00,,,0.00,pywws,2013-02-27 14:33:00,
2013-02-27 14:38:00,50.9,40.0,30.62,NE,45,0.7,1.6,66,0.00,,,0.00,pywws,2013-02-27 14:38:00,
2013-02-27 14:43:00,51.3,40.3,30.62,South,180,0.7,2.2,66,0.00,,,0.00,pywws,2013-02-27 14:43:00,
2013-02-27 14:48:00,51.6,40.2,30.62,North,-999,0.0,1.6,65,0.00,,,0.00,pywws,2013-02-27 14:48:00,
2013-02-27 14:53:00,51.4,40.1,30.62,SE,135,0.7,1.6,65,0.00,,,0.00,pywws,2013-02-27 14:53:00,
2013-02-27 15:03:00,51.1,39.3,30.61,East,90,1.6,3.1,64,0.00,,,0.00,pywws,2013-02-27 15:03:00,
2013-02-27 15:08:00,49.3,39.2,30.61,East,90,1.6,3.8,68,0.00,,,0.00,pywws,2013-02-27 15:08:00,
2013-02-27 15:13:00,48.7,39.0,30.62,North,-999,0.0,0.7,69,0.00,,,0.00,pywws,2013-02-27 15:13:00,
2013-02-27 15:18:00,49.3,39.9,30.61,North,-999,0.0,1.6,70,0.00,,,0.00,pywws,2013-02-27 15:18:00,
2013-02-27 15:23:00,49.5,39.7,30.61,SSE,158,1.6,2.2,69,0.00,,,0.00,pywws,2013-02-27 15:23:00,
2013-02-27 15:28:00,49.8,40.1,30.62,North,-999,0.0,0.7,69,0.00,,,0.00,pywws,2013-02-27 15:28:00,
2013-02-27 15:33:00,49.5,39.3,30.61,North,-999,0.0,0.7,68,0.00,,,0.00,pywws,2013-02-27 15:33:00,
2013-02-27 15:38:00,49.5,39.3,30.61,North,-999,0.0,0.7,68,0.00,,,0.00,pywws,2013-02-27 15:38:00,
2013-02-27 15:43:00,49.1,39.0,30.61,North,-999,0.0,0.7,68,0.00,,,0.00,pywws,2013-02-27 15:43:00,
2013-02-27 15:48:00,48.7,39.0,30.61,North,-999,0.0,2.2,69,0.00,,,0.00,pywws,2013-02-27 15:48:00,
2013-02-27 15:53:00,48.4,39.1,30.61,South,180,0.7,2.2,70,0.00,,,0.00,pywws,2013-02-27 15:53:00,
2013-02-27 16:03:00,48.0,38.7,30.61,South,180,0.7,1.6,70,0.00,,,0.00,pywws,2013-02-27 16:03:00,
2013-02-27 16:08:00,48.0,39.1,30.60,North,-999,0.0,0.7,71,0.00,,,0.00,pywws,2013-02-27 16:08:00,
2013-02-27 16:13:00,48.0,39.4,30.61,North,-999,0.0,0.7,72,0.00,,,0.00,pywws,2013-02-27 16:13:00,
2013-02-27 16:18:00,47.7,39.1,30.61,SE,135,0.7,2.2,72,0.00,,,0.00,pywws,2013-02-27 16:18:00,
2013-02-27 16:23:00,47.3,39.1,30.61,North,-999,0.0,1.6,73,0.00,,,0.00,pywws,2013-02-27 16:23:00,
2013-02-27 16:28:00,47.1,39.3,30.61,East,90,0.7,3.1,74,0.00,,,0.00,pywws,2013-02-27 16:28:00,
2013-02-27 16:33:00,46.8,39.3,30.61,North,-999,0.0,1.6,75,0.00,,,0.00,pywws,2013-02-27 16:33:00,
2013-02-27 16:38:00,46.6,39.1,30.61,North,-999,0.0,1.6,75,0.00,,,0.00,pywws,2013-02-27 16:38:00,
2013-02-27 16:43:00,46.2,38.4,30.61,North,-999,0.0,0.7,74,0.00,,,0.00,pywws,2013-02-27 16:43:00,
2013-02-27 16:48:00,45.9,38.0,30.61,North,-999,0.0,1.6,74,0.00,,,0.00,pywws,2013-02-27 16:48:00,
2013-02-27 16:53:00,45.5,38.0,30.61,North,-999,0.0,0.7,75,0.00,,,0.00,pywws,2013-02-27 16:53:00,
2013-02-27 17:03:00,45.0,37.5,30.61,North,-999,0.0,0.0,75,0.00,,,0.00,pywws,2013-02-27 17:03:00,
2013-02-27 17:08:00,44.2,37.2,30.61,North,-999,0.0,0.0,76,0.00,,,0.00,pywws,2013-02-27 17:08:00,
2013-02-27 17:13:00,44.1,37.3,30.61,North,-999,0.0,0.0,77,0.00,,,0.00,pywws,2013-02-27 17:13:00,
2013-02-27 17:18:00,43.7,37.0,30.61,North,-999,0.0,0.0,77,0.00,,,0.00,pywws,2013-02-27 17:18:00,
2013-02-27 17:23:00,43.5,36.8,30.61,North,-999,0.0,0.0,77,0.00,,,0.00,pywws,2013-02-27 17:23:00,
2013-02-27 17:28:00,43.2,36.4,30.61,North,-999,0.0,0.0,77,0.00,,,0.00,pywws,2013-02-27 17:28:00,
2013-02-27 17:33:00,42.3,35.6,30.60,North,-999,0.0,0.0,77,0.00,,,0.00,pywws,2013-02-27 17:33:00,
2013-02-27 17:38:00,41.4,35.0,30.61,North,-999,0.0,0.0,78,0.00,,,0.00,pywws,2013-02-27 17:38:00,
2013-02-27 17:43:00,40.6,34.6,30.61,North,-999,0.0,0.0,79,0.00,,,0.00,pywws,2013-02-27 17:43:00,
2013-02-27 17:48:00,39.9,34.3,30.61,North,-999,0.0,0.0,80,0.00,,,0.00,pywws,2013-02-27 17:48:00,
2013-02-27 17:53:00,39.2,33.9,30.61,North,-999,0.0,0.0,81,0.00,,,0.00,pywws,2013-02-27 17:53:00,
2013-02-27 18:03:00,38.8,33.8,30.61,North,-999,0.0,0.0,82,0.00,,,0.00,pywws,2013-02-27 18:03:00,
2013-02-27 18:08:00,37.8,33.7,30.61,North,-999,0.0,0.0,85,0.00,,,0.00,pywws,2013-02-27 18:08:00,
2013-02-27 18:13:00,37.4,33.6,30.61,North,-999,0.0,0.0,86,0.00,,,0.00,pywws,2013-02-27 18:13:00,
2013-02-27 18:18:00,37.0,33.2,30.61,North,-999,0.0,0.0,86,0.00,,,0.00,pywws,2013-02-27 18:18:00,
2013-02-27 18:23:00,37.0,33.5,30.61,North,-999,0.0,0.0,87,0.00,,,0.00,pywws,2013-02-27 18:23:00,
2013-02-27 18:28:00,37.2,34.0,30.61,North,-999,0.0,0.0,88,0.00,,,0.00,pywws,2013-02-27 18:28:00,
2013-02-27 18:33:00,36.9,33.9,30.62,North,-999,0.0,0.0,89,0.00,,,0.00,pywws,2013-02-27 18:33:00,
2013-02-27 18:38:00,36.5,33.6,30.62,North,-999,0.0,0.0,89,0.00,,,0.00,pywws,2013-02-27 18:38:00,
2013-02-27 18:43:00,36.0,33.0,30.62,North,-999,0.0,0.0,89,0.00,,,0.00,pywws,2013-02-27 18:43:00,
2013-02-27 18:48:00,35.6,33.0,30.62,North,-999,0.0,0.0,90,0.00,,,0.00,pywws,2013-02-27 18:48:00,
2013-02-27 18:53:00,35.1,32.4,30.62,North,-999,0.0,0.0,90,0.00,,,0.00,pywws,2013-02-27 18:53:00,
2013-02-27 19:03:00,34.9,32.3,30.62,North,-999,0.0,0.0,90,0.00,,,0.00,pywws,2013-02-27 19:03:00,
2013-02-27 19:08:00,34.5,32.2,30.62,North,-999,0.0,0.0,91,0.00,,,0.00,pywws,2013-02-27 19:08:00,
2013-02-27 19:13:00,34.3,32.3,30.62,North,-999,0.0,0.0,92,0.00,,,0.00,pywws,2013-02-27 19:13:00,
2013-02-27 19:18:00,34.3,32.3,30.62,North,-999,0.0,0.0,92,0.00,,,0.00,pywws,2013-02-27 19:18:00,
2013-02-27 19:23:00,34.2,32.1,30.62,North,-999,0.0,0.0,92,0.00,,,0.00,pywws,2013-02-27 19:23:00,
2013-02-27 19:28:00,33.8,31.7,30.62,North,-999,0.0,0.0,92,0.00,,,0.00,pywws,2013-02-27 19:28:00,
2013-02-27 19:33:00,33.4,31.6,30.62,North,-999,0.0,0.0,93,0.00,,,0.00,pywws,2013-02-27 19:33:00,
2013-02-27 19:38:00,33.3,31.5,30.62,North,-999,0.0,0.0,93,0.00,,,0.00,pywws,2013-02-27 19:38:00,
2013-02-27 19:43:00,32.9,31.1,30.62,North,-999,0.0,0.0,93,0.00,,,0.00,pywws,2013-02-27 19:43:00,
2013-02-27 19:48:00,32.9,31.4,30.62,North,-999,0.0,0.0,94,0.00,,,0.00,pywws,2013-02-27 19:48:00,
2013-02-27 19:53:00,32.9,31.4,30.63,North,-999,0.0,0.0,94,0.00,,,0.00,pywws,2013-02-27 19:53:00,
2013-02-27 20:03:00,32.7,31.2,30.63,North,-999,0.0,0.0,94,0.00,,,0.00,pywws,2013-02-27 20:03:00,
2013-02-27 20:08:00,32.2,30.9,30.63,North,-999,0.0,0.0,95,0.00,,,0.00,pywws,2013-02-27 20:08:00,
2013-02-27 20:13:00,32.2,30.9,30.62,North,-999,0.0,0.0,95,0.00,,,0.00,pywws,2013-02-27 20:13:00,
2013-02-27 20:18:00,32.4,31.3,30.63,North,-999,0.0,0.0,96,0.00,,,0.00,pywws,2013-02-27 20:18:00,
2013-02-27 20:23:00,32.2,31.2,30.62,North,-999,0.0,0.0,96,0.00,,,0.00,pywws,2013-02-27 20:23:00,
2013-02-27 20:28:00,32.2,31.2,30.62,North,-999,0.0,0.0,96,0.00,,,0.00,pywws,2013-02-27 20:28:00,
2013-02-27 20:33:00,32.0,31.0,30.62,North,-999,0.0,0.0,96,0.00,,,0.00,pywws,2013-02-27 20:33:00,
2013-02-27 20:38:00,31.8,31.1,30.62,North,-999,0.0,0.0,97,0.00,,,0.00,pywws,2013-02-27 20:38:00,
2013-02-27 20:43:00,31.5,30.7,30.62,North,-999,0.0,0.0,97,0.00,,,0.00,pywws,2013-02-27 20:43:00,
2013-02-27 20:48:00,31.3,30.5,30.63,North,-999,0.0,0.0,97,0.00,,,0.00,pywws,2013-02-27 20:48:00,
2013-02-27 20:53:00,31.1,30.3,30.62,North,-999,0.0,0.0,97,0.00,,,0.00,pywws,2013-02-27 20:53:00,
2013-02-27 21:03:00,31.1,30.3,30.62,North,-999,0.0,0.0,97,0.00,,,0.00,pywws,2013-02-27 21:03:00,
2013-02-27 21:08:00,30.6,29.8,30.63,North,-999,0.0,0.0,97,0.00,,,0.00,pywws,2013-02-27 21:08:00,
2013-02-27 21:13:00,30.4,29.9,30.63,North,-999,0.0,0.0,98,0.00,,,0.00,pywws,2013-02-27 21:13:00,
2013-02-27 21:18:00,30.2,29.7,30.62,North,-999,0.0,0.0,98,0.00,,,0.00,pywws,2013-02-27 21:18:00,
2013-02-27 21:23:00,30.4,29.9,30.63,North,-999,0.0,0.0,98,0.00,,,0.00,pywws,2013-02-27 21:23:00,
2013-02-27 21:28:00,30.2,29.7,30.63,North,-999,0.0,0.0,98,0.00,,,0.00,pywws,2013-02-27 21:28:00,
2013-02-27 21:33:00,30.2,29.7,30.63,North,-999,0.0,0.0,98,0.00,,,0.00,pywws,2013-02-27 21:33:00,
2013-02-27 21:38:00,30.2,30.0,30.63,North,-999,0.0,1.6,99,0.00,,,0.00,pywws,2013-02-27 21:38:00,
2013-02-27 21:43:00,30.0,29.8,30.62,North,-999,0.0,0.7,99,0.00,,,0.00,pywws,2013-02-27 21:43:00,
2013-02-27 21:48:00,29.8,29.6,30.62,North,-999,0.0,0.0,99,0.00,,,0.00,pywws,2013-02-27 21:48:00,
2013-02-27 21:53:00,29.7,29.4,30.63,North,-999,0.0,0.0,99,0.00,,,0.00,pywws,2013-02-27 21:53:00,
2013-02-27 22:03:00,29.5,29.2,30.62,North,-999,0.0,0.0,99,0.00,,,0.00,pywws,2013-02-27 22:03:00,
2013-02-27 22:08:00,28.9,28.7,30.62,North,-999,0.0,0.0,99,0.00,,,0.00,pywws,2013-02-27 22:08:00,
2013-02-27 22:13:00,29.1,28.9,30.62,North,-999,0.0,0.0,99,0.00,,,0.00,pywws,2013-02-27 22:13:00,
2013-02-27 22:18:00,29.7,29.4,30.62,North,-999,0.0,0.0,99,0.00,,,0.00,pywws,2013-02-27 22:18:00,
2013-02-27 22:23:00,29.7,29.4,30.62,North,-999,0.0,0.0,99,0.00,,,0.00,pywws,2013-02-27 22:23:00,
2013-02-27 22:28:00,29.3,29.1,30.62,North,-999,0.0,0.0,99,0.00,,,0.00,pywws,2013-02-27 22:28:00,
2013-02-27 22:33:00,29.3,29.1,30.62,North,-999,0.0,0.0,99,0.00,,,0.00,pywws,2013-02-27 22:33:00,
2013-02-27 22:38:00,29.7,29.4,30.62,North,-999,0.0,0.0,99,0.00,,,0.00,pywws,2013-02-27 22:38:00,
2013-02-27 22:43:00,30.0,29.8,30.62,North,-999,0.0,0.0,99,0.00,,,0.00,pywws,2013-02-27 22:43:00,
2013-02-27 22:48:00,30.0,29.8,30.62,North,-999,0.0,0.0,99,0.00,,,0.00,pywws,2013-02-27 22:48:00,
2013-02-27 22:53:00,30.0,29.8,30.62,North,-999,0.0,0.0,99,0.00,,,0.00,pywws,2013-02-27 22:53:00,
2013-02-27 23:03:00,29.8,29.6,30.61,North,-999,0.0,0.0,99,0.00,,,0.00,pywws,2013-02-27 23:03:00,
2013-02-27 23:08:00,29.5,29.2,30.61,North,-999,0.0,0.0,99,0.00,,,0.00,pywws,2013-02-27 23:08:00,
2013-02-27 23:13:00,29.3,29.1,30.61,North,-999,0.0,0.0,99,0.00,,,0.00,pywws,2013-02-27 23:13:00,
2013-02-27 23:18:00,29.3,29.1,30.61,North,-999,0.0,0.0,99,0.00,,,0.00,pywws,2013-02-27 23:18:00,
2013-02-27 23:23:00,28.9,28.7,30.61,North,-999,0.0,0.0,99,0.00,,,0.00,pywws,2013-02-27 23:23:00,
2013-02-27 23:28:00,28.9,28.7,30.61,North,-999,0.0,0.0,99,0.00,,,0.00,pywws,2013-02-27 23:28:00,
2013-02-27 23:33:00,29.3,29.1,30.61,North,-999,0.0,0.7,99,0.00,,,0.00,pywws,2013-02-27 23:33:00,
2013-02-27 23:38:00,29.5,29.2,30.61,North,-999,0.0,0.0,99,0.00,,,0.00,pywws,2013-02-27 23:38:00,
2013-02-27 23:43:00,29.5,29.2,30.61,North,-999,0.0,0.0,99,0.00,,,0.00,pywws,2013-02-27 23:43:00,
2013-02-27 23:48:00,30.0,29.8,30.61,North,-999,0.0,0.0,99,0.00,,,0.00,pywws,2013-02-27 23:48:00,
2013-02-27 23:53:00,30.7,30.5,30.61,North,-999,0.0,0.0,99,0.00,,,0.00,pywws,2013-02-27 23:53:00,